createdAt,value
2019-03-09T00:00:56.949Z,11.41
2019-03-09T00:01:57.220Z,11.4
2019-03-09T00:02:57.237Z,11.43
2019-03-09T00:03:57.352Z,11.4
2019-03-09T00:04:57.020Z,11.41
2019-03-09T00:05:57.563Z,11.41
2019-03-09T00:06:57.323Z,11.45
2019-03-09T00:07:57.607Z,11.45
2019-03-09T00:08:57.094Z,11.4
2019-03-09T00:09:57.115Z,11.36
2019-03-09T00:10:57.674Z,11.43
2019-03-09T00:11:57.679Z,11.43
2019-03-09T00:12:57.688Z,11.4
2019-03-09T00:13:57.455Z,11.35
2019-03-09T00:14:57.475Z,11.44
2019-03-09T00:15:57.493Z,11.43
2019-03-09T00:16:57.519Z,11.37
2019-03-09T00:17:57.270Z,11.4
2019-03-09T00:18:57.550Z,11.37
2019-03-09T00:19:57.575Z,11.47
2019-03-09T00:20:57.905Z,11.41
2019-03-09T00:21:57.616Z,11.37
2019-03-09T00:22:57.629Z,11.37
2019-03-09T00:23:57.390Z,11.36
2019-03-09T00:24:57.422Z,11.41
2019-03-09T00:25:59.571Z,11.36
2019-03-09T00:26:57.717Z,11.33
2019-03-09T00:27:57.994Z,11.26
2019-03-09T00:28:57.485Z,11.36
2019-03-09T00:29:57.933Z,11.41
2019-03-09T00:30:58.043Z,11.32
2019-03-09T00:31:57.555Z,11.29
2019-03-09T00:32:58.093Z,11.36
2019-03-09T00:33:57.850Z,11.36
2019-03-09T00:34:57.753Z,11.37
2019-03-09T00:35:57.892Z,11.4
2019-03-09T00:36:57.906Z,11.35
2019-03-09T00:37:58.138Z,11.36
2019-03-09T00:38:57.948Z,11.35
2019-03-09T00:39:58.227Z,11.4
2019-03-09T00:40:57.716Z,11.3
2019-03-09T00:41:58.278Z,11.32
2019-03-09T00:42:58.293Z,11.35
2019-03-09T00:43:57.779Z,11.32
2019-03-09T00:44:58.064Z,11.27
2019-03-09T00:45:58.343Z,11.36
2019-03-09T00:46:58.521Z,11.3
2019-03-09T00:47:58.120Z,11.36
2019-03-09T00:48:58.422Z,11.27
2019-03-09T00:49:58.161Z,11.33
2019-03-09T00:50:58.455Z,11.27
2019-03-09T00:51:58.201Z,11.32
2019-03-09T00:52:57.965Z,11.27
2019-03-09T00:53:58.239Z,11.25
2019-03-09T00:54:58.822Z,11.29
2019-03-09T00:55:58.272Z,11.25
2019-03-09T00:56:58.293Z,11.32
2019-03-09T00:57:58.314Z,11.3
2019-03-09T00:58:58.595Z,11.18
2019-03-09T00:59:58.350Z,11.29
2019-03-09T01:00:58.372Z,11.18
2019-03-09T01:01:58.649Z,11.25
2019-03-09T01:02:58.413Z,11.19
2019-03-09T01:03:58.184Z,11.15
2019-03-09T01:04:58.443Z,11.23
2019-03-09T01:05:58.729Z,11.17
2019-03-09T01:06:58.219Z,11.17
2019-03-09T01:07:58.503Z,11.19
2019-03-09T01:08:58.519Z,11.15
2019-03-09T01:09:58.541Z,11.17
2019-03-09T01:10:58.301Z,11.15
2019-03-09T01:11:58.602Z,11.14
2019-03-09T01:12:58.863Z,11.19
2019-03-09T01:13:58.356Z,11.23
2019-03-09T01:14:58.637Z,11.19
2019-03-09T01:15:58.394Z,11.14
2019-03-09T01:16:58.680Z,11.19
2019-03-09T01:17:58.970Z,11.11
2019-03-09T01:18:58.717Z,11.18
2019-03-09T01:19:58.478Z,11.17
2019-03-09T01:20:58.762Z,11.12
2019-03-09T01:21:58.515Z,11.1
2019-03-09T01:22:58.796Z,11.12
2019-03-09T01:23:58.551Z,11.15
2019-03-09T01:24:58.836Z,11.12
2019-03-09T01:25:58.854Z,11.1
2019-03-09T01:26:58.609Z,11.12
2019-03-09T01:27:58.627Z,11.11
2019-03-09T01:28:58.913Z,11.12
2019-03-09T01:29:58.987Z,11.1
2019-03-09T01:30:59.221Z,11.14
2019-03-09T01:31:59.234Z,11.11
2019-03-09T01:32:59.257Z,11.1
2019-03-09T01:33:59.028Z,11.05
2019-03-09T01:34:59.289Z,11.05
2019-03-09T01:35:58.790Z,11.11
2019-03-09T01:36:58.801Z,11.1
2019-03-09T01:37:58.822Z,11.07
2019-03-09T01:38:59.101Z,11.11
2019-03-09T01:39:59.123Z,11.15
2019-03-09T01:40:59.401Z,11.02
2019-03-09T01:41:59.165Z,11.07
2019-03-09T01:42:59.001Z,11.07
2019-03-09T01:43:59.207Z,11.14
2019-03-09T01:44:58.955Z,11.05
2019-03-09T01:45:59.236Z,11.04
2019-03-09T01:46:59.255Z,11.05
2019-03-09T01:47:59.285Z,10.97
2019-03-09T01:48:59.296Z,11.05
2019-03-09T01:49:59.062Z,11.05
2019-03-09T01:50:59.332Z,11.07
2019-03-09T01:51:59.353Z,11
2019-03-09T01:52:59.638Z,11.04
2019-03-09T01:53:59.398Z,10.97
2019-03-09T01:54:59.671Z,11
2019-03-09T01:55:59.434Z,11.04
2019-03-09T01:56:59.453Z,11.05
2019-03-09T01:57:59.500Z,10.97
2019-03-09T01:58:59.519Z,11
2019-03-09T01:59:59.516Z,10.96
2019-03-09T02:00:59.262Z,11
2019-03-09T02:01:59.811Z,11.05
2019-03-09T02:02:59.304Z,11.04
2019-03-09T02:03:59.854Z,11.05
2019-03-09T02:04:59.872Z,11.04
2019-03-09T02:05:59.356Z,10.96
2019-03-09T02:06:59.378Z,10.96
2019-03-09T02:07:59.658Z,11
2019-03-09T02:08:59.676Z,10.97
2019-03-09T02:09:59.703Z,11.05
2019-03-09T02:10:59.979Z,10.97
2019-03-09T02:11:59.996Z,11
2019-03-09T02:12:59.776Z,11.04
2019-03-09T02:13:59.514Z,10.94
2019-03-09T02:14:59.799Z,10.93
2019-03-09T02:15:59.548Z,10.96
2019-03-09T02:17:00.101Z,10.99
2019-03-09T02:18:00.115Z,11.05
2019-03-09T02:18:59.605Z,10.9
2019-03-09T02:19:59.625Z,11
2019-03-09T02:20:59.913Z,11
2019-03-09T02:21:59.668Z,11
2019-03-09T02:22:59.976Z,10.89
2019-03-09T02:24:00.227Z,10.97
2019-03-09T02:25:00.387Z,10.93
2019-03-09T02:26:00.264Z,11.05
2019-03-09T02:27:00.300Z,10.97
2019-03-09T02:27:59.781Z,10.96
2019-03-09T02:29:01.019Z,10.96
2019-03-09T02:30:00.272Z,10.92
2019-03-09T02:31:00.142Z,10.89
2019-03-09T02:31:59.866Z,10.9
2019-03-09T02:32:59.894Z,10.93
2019-03-09T02:33:59.918Z,10.94
2019-03-09T02:35:00.607Z,10.78
2019-03-09T02:35:59.939Z,10.82
2019-03-09T02:37:00.223Z,10.92
2019-03-09T02:38:00.527Z,10.75
2019-03-09T02:38:59.997Z,10.94
2019-03-09T02:40:00.520Z,10.76
2019-03-09T02:41:00.293Z,10.89
2019-03-09T02:42:00.070Z,10.87
2019-03-09T02:43:00.347Z,10.89
2019-03-09T02:44:00.097Z,10.93
2019-03-09T02:45:00.534Z,10.86
2019-03-09T02:46:00.134Z,10.92
2019-03-09T02:47:00.738Z,10.92
2019-03-09T02:48:00.455Z,10.82
2019-03-09T02:49:00.731Z,10.75
2019-03-09T02:50:00.831Z,10.89
2019-03-09T02:51:00.501Z,10.86
2019-03-09T02:52:00.512Z,10.81
2019-03-09T02:53:00.263Z,10.9
2019-03-09T02:54:00.584Z,10.82
2019-03-09T02:55:00.860Z,10.82
2019-03-09T02:56:00.869Z,10.82
2019-03-09T02:57:00.869Z,10.94
2019-03-09T02:58:00.897Z,10.82
2019-03-09T02:59:00.643Z,10.94
2019-03-09T03:00:01.279Z,10.86
2019-03-09T03:01:00.940Z,10.79
2019-03-09T03:02:00.974Z,10.79
2019-03-09T03:03:00.985Z,10.81
2019-03-09T03:04:00.748Z,10.81
2019-03-09T03:05:00.783Z,10.86
2019-03-09T03:06:00.774Z,10.76
2019-03-09T03:07:00.817Z,10.79
2019-03-09T03:08:01.081Z,10.84
2019-03-09T03:09:00.833Z,10.81
2019-03-09T03:10:00.851Z,10.76
2019-03-09T03:11:00.883Z,10.84
2019-03-09T03:12:01.180Z,10.76
2019-03-09T03:13:00.916Z,10.84
2019-03-09T03:14:01.223Z,10.81
2019-03-09T03:15:00.976Z,10.82
2019-03-09T03:16:00.976Z,10.81
2019-03-09T03:17:01.259Z,10.81
2019-03-09T03:18:01.025Z,10.81
2019-03-09T03:19:00.764Z,10.82
2019-03-09T03:20:00.790Z,10.78
2019-03-09T03:21:00.797Z,10.75
2019-03-09T03:22:00.824Z,10.69
2019-03-09T03:23:01.101Z,10.82
2019-03-09T03:24:01.131Z,10.78
2019-03-09T03:25:01.140Z,10.78
2019-03-09T03:26:01.153Z,10.72
2019-03-09T03:27:01.446Z,10.74
2019-03-09T03:28:00.935Z,10.82
2019-03-09T03:29:01.223Z,10.72
2019-03-09T03:30:01.496Z,10.78
2019-03-09T03:31:01.298Z,10.72
2019-03-09T03:32:01.021Z,10.71
2019-03-09T03:33:01.344Z,10.72
2019-03-09T03:34:01.326Z,10.67
2019-03-09T03:35:01.085Z,10.76
2019-03-09T03:36:01.617Z,10.74
2019-03-09T03:37:01.635Z,10.74
2019-03-09T03:38:01.654Z,10.71
2019-03-09T03:39:01.163Z,10.71
2019-03-09T03:40:01.437Z,10.64
2019-03-09T03:41:01.186Z,10.67
2019-03-09T03:42:01.502Z,10.69
2019-03-09T03:43:01.748Z,10.67
2019-03-09T03:44:01.246Z,10.61
2019-03-09T03:45:01.531Z,10.74
2019-03-09T03:46:01.805Z,10.67
2019-03-09T03:47:01.826Z,10.63
2019-03-09T03:48:01.580Z,10.67
2019-03-09T03:49:03.683Z,10.61
2019-03-09T03:50:01.920Z,10.59
2019-03-09T03:51:01.642Z,10.71
2019-03-09T03:52:01.674Z,10.61
2019-03-09T03:53:01.427Z,10.64
2019-03-09T03:54:01.780Z,10.59
2019-03-09T03:55:01.713Z,10.68
2019-03-09T03:56:01.732Z,10.61
2019-03-09T03:57:02.026Z,10.67
2019-03-09T03:58:01.506Z,10.59
2019-03-09T03:59:01.785Z,10.68
2019-03-09T04:00:02.088Z,10.59
2019-03-09T04:01:01.831Z,10.63
2019-03-09T04:02:01.845Z,10.59
2019-03-09T04:03:02.130Z,10.68
2019-03-09T04:04:01.632Z,10.61
2019-03-09T04:05:01.639Z,10.63
2019-03-09T04:06:01.922Z,10.59
2019-03-09T04:07:02.056Z,10.6
2019-03-09T04:08:01.973Z,10.57
2019-03-09T04:09:01.992Z,10.6
2019-03-09T04:10:01.997Z,10.59
2019-03-09T04:11:01.748Z,10.63
2019-03-09T04:12:02.034Z,10.48
2019-03-09T04:13:01.786Z,10.49
2019-03-09T04:14:01.868Z,10.48
2019-03-09T04:15:02.358Z,10.56
2019-03-09T04:16:02.227Z,10.51
2019-03-09T04:17:02.400Z,10.49
2019-03-09T04:18:02.155Z,10.46
2019-03-09T04:19:02.426Z,10.57
2019-03-09T04:20:01.934Z,10.48
2019-03-09T04:21:04.223Z,10.57
2019-03-09T04:22:02.233Z,10.54
2019-03-09T04:23:01.979Z,10.49
2019-03-09T04:24:02.005Z,10.6
2019-03-09T04:25:02.334Z,10.49
2019-03-09T04:26:02.297Z,10.51
2019-03-09T04:27:02.083Z,10.57
2019-03-09T04:28:02.600Z,10.57
2019-03-09T04:29:02.628Z,10.51
2019-03-09T04:30:02.216Z,10.49
2019-03-09T04:31:02.669Z,10.51
2019-03-09T04:32:02.475Z,10.46
2019-03-09T04:33:02.430Z,10.54
2019-03-09T04:34:02.447Z,10.42
2019-03-09T04:35:02.470Z,10.51
2019-03-09T04:36:02.254Z,10.51
2019-03-09T04:37:02.773Z,10.48
2019-03-09T04:38:02.526Z,10.44
2019-03-09T04:39:02.541Z,10.42
2019-03-09T04:40:02.561Z,10.44
2019-03-09T04:41:02.581Z,10.53
2019-03-09T04:42:02.372Z,10.56
2019-03-09T04:43:02.612Z,10.48
2019-03-09T04:44:02.899Z,10.41
2019-03-09T04:45:02.727Z,10.42
2019-03-09T04:46:02.670Z,10.49
2019-03-09T04:47:02.697Z,10.42
2019-03-09T04:48:02.985Z,10.42
2019-03-09T04:49:02.728Z,10.4
2019-03-09T04:50:02.509Z,10.48
2019-03-09T04:51:02.767Z,10.44
2019-03-09T04:52:02.782Z,10.42
2019-03-09T04:53:02.805Z,10.42
2019-03-09T04:54:02.823Z,10.44
2019-03-09T04:55:02.843Z,10.42
2019-03-09T04:56:02.863Z,10.42
2019-03-09T04:57:02.618Z,10.46
2019-03-09T04:58:02.640Z,10.48
2019-03-09T04:59:02.938Z,10.42
2019-03-09T05:00:02.941Z,10.49
2019-03-09T05:01:02.690Z,10.46
2019-03-09T05:02:02.717Z,10.42
2019-03-09T05:03:02.992Z,10.48
2019-03-09T05:04:03.013Z,10.49
2019-03-09T05:05:03.343Z,10.4
2019-03-09T05:06:02.790Z,10.46
2019-03-09T05:07:02.805Z,10.48
2019-03-09T05:08:03.102Z,10.4
2019-03-09T05:09:03.117Z,10.44
2019-03-09T05:10:03.390Z,10.34
2019-03-09T05:11:03.412Z,10.42
2019-03-09T05:12:03.163Z,10.46
2019-03-09T05:13:02.920Z,10.42
2019-03-09T05:14:03.202Z,10.44
2019-03-09T05:15:03.224Z,10.46
2019-03-09T05:16:02.980Z,10.35
2019-03-09T05:17:03.256Z,10.41
2019-03-09T05:18:03.539Z,10.37
2019-03-09T05:19:03.302Z,10.42
2019-03-09T05:20:03.314Z,10.48
2019-03-09T05:21:03.605Z,10.44
2019-03-09T05:22:03.351Z,10.37
2019-03-09T05:23:03.116Z,10.48
2019-03-09T05:24:03.399Z,10.42
2019-03-09T05:25:03.420Z,10.37
2019-03-09T05:26:03.444Z,10.4
2019-03-09T05:27:03.187Z,10.37
2019-03-09T05:28:03.207Z,10.37
2019-03-09T05:29:03.489Z,10.41
2019-03-09T05:30:03.779Z,10.34
2019-03-09T05:31:03.525Z,10.42
2019-03-09T05:32:04.612Z,10.38
2019-03-09T05:33:03.822Z,10.35
2019-03-09T05:34:03.318Z,10.37
2019-03-09T05:35:03.600Z,10.38
2019-03-09T05:36:03.359Z,10.44
2019-03-09T05:37:03.386Z,10.38
2019-03-09T05:38:03.919Z,10.37
2019-03-09T05:39:03.680Z,10.41
2019-03-09T05:40:03.698Z,10.37
2019-03-09T05:41:03.451Z,10.37
2019-03-09T05:42:03.736Z,10.42
2019-03-09T05:43:03.492Z,10.34
2019-03-09T05:44:03.505Z,10.35
2019-03-09T05:45:04.054Z,10.44
2019-03-09T05:46:03.806Z,10.44
2019-03-09T05:47:03.567Z,10.35
2019-03-09T05:48:04.113Z,10.44
2019-03-09T05:49:03.603Z,10.4
2019-03-09T05:50:04.723Z,10.41
2019-03-09T05:51:04.170Z,10.42
2019-03-09T05:52:03.665Z,10.4
2019-03-09T05:53:03.973Z,10.34
2019-03-09T05:54:03.960Z,10.34
2019-03-09T05:55:03.991Z,10.38
2019-03-09T05:56:04.002Z,10.41
2019-03-09T05:57:04.019Z,10.46
2019-03-09T05:58:04.303Z,10.35
2019-03-09T05:59:03.830Z,10.41
2019-03-09T06:00:03.814Z,10.3
2019-03-09T06:01:03.842Z,10.34
2019-03-09T06:02:04.374Z,10.4
2019-03-09T06:03:04.137Z,10.41
2019-03-09T06:04:05.208Z,10.34
2019-03-09T06:05:04.171Z,10.38
2019-03-09T06:06:04.457Z,10.42
2019-03-09T06:07:04.204Z,10.42
2019-03-09T06:08:03.968Z,10.42
2019-03-09T06:09:04.521Z,10.46
2019-03-09T06:10:04.267Z,10.4
2019-03-09T06:11:04.283Z,10.37
2019-03-09T06:12:04.305Z,10.42
2019-03-09T06:13:04.059Z,10.37
2019-03-09T06:14:04.607Z,10.41
2019-03-09T06:15:04.359Z,10.4
2019-03-09T06:16:04.380Z,10.44
2019-03-09T06:17:04.658Z,10.35
2019-03-09T06:18:06.269Z,10.38
2019-03-09T06:19:04.172Z,10.4
2019-03-09T06:20:04.461Z,10.34
2019-03-09T06:21:04.477Z,10.41
2019-03-09T06:22:04.490Z,10.4
2019-03-09T06:23:04.777Z,10.35
2019-03-09T06:24:04.543Z,10.35
2019-03-09T06:25:04.820Z,10.37
2019-03-09T06:26:04.606Z,10.38
2019-03-09T06:27:04.588Z,10.41
2019-03-09T06:28:04.868Z,10.38
2019-03-09T06:29:04.622Z,10.44
2019-03-09T06:30:04.910Z,10.38
2019-03-09T06:31:04.664Z,10.42
2019-03-09T06:32:04.681Z,10.42
2019-03-09T06:33:04.701Z,10.4
2019-03-09T06:34:04.718Z,10.37
2019-03-09T06:35:04.951Z,10.34
2019-03-09T06:36:04.755Z,10.35
2019-03-09T06:37:05.049Z,10.4
2019-03-09T06:38:04.537Z,10.46
2019-03-09T06:39:05.079Z,10.37
2019-03-09T06:40:04.975Z,10.38
2019-03-09T06:41:07.890Z,10.46
2019-03-09T06:42:04.610Z,10.42
2019-03-09T06:43:04.884Z,10.44
2019-03-09T06:44:04.917Z,10.44
2019-03-09T06:45:04.977Z,10.48
2019-03-09T06:46:05.248Z,10.33
2019-03-09T06:47:04.702Z,10.4
2019-03-09T06:48:05.243Z,10.44
2019-03-09T06:49:04.734Z,10.46
2019-03-09T06:50:05.286Z,10.51
2019-03-09T06:51:04.774Z,10.49
2019-03-09T06:52:05.058Z,10.51
2019-03-09T06:53:05.538Z,10.41
2019-03-09T06:54:05.094Z,10.46
2019-03-09T06:55:05.112Z,10.44
2019-03-09T06:56:04.885Z,10.42
2019-03-09T06:57:13.395Z,10.46
2019-03-09T06:58:05.478Z,10.44
2019-03-09T06:59:05.208Z,10.51
2019-03-09T07:00:05.213Z,10.44
2019-03-09T07:01:05.224Z,10.49
2019-03-09T07:02:05.248Z,10.56
2019-03-09T07:03:05.260Z,10.54
2019-03-09T07:04:05.288Z,10.6
2019-03-09T07:05:05.038Z,10.53
2019-03-09T07:06:05.064Z,10.44
2019-03-09T07:07:05.342Z,10.46
2019-03-09T07:08:05.356Z,10.6
2019-03-09T07:09:05.116Z,10.6
2019-03-09T07:10:05.683Z,10.54
2019-03-09T07:11:05.161Z,10.61
2019-03-09T07:12:05.436Z,10.61
2019-03-09T07:13:05.450Z,10.61
2019-03-09T07:14:05.730Z,10.61
2019-03-09T07:15:05.763Z,10.61
2019-03-09T07:16:05.507Z,10.68
2019-03-09T07:17:05.524Z,10.61
2019-03-09T07:18:05.817Z,10.68
2019-03-09T07:19:05.570Z,10.69
2019-03-09T07:20:15.185Z,10.64
2019-03-09T07:21:05.353Z,10.69
2019-03-09T07:22:05.635Z,10.75
2019-03-09T07:23:05.911Z,10.68
2019-03-09T07:24:05.404Z,10.74
2019-03-09T07:25:05.689Z,10.74
2019-03-09T07:26:05.698Z,10.72
2019-03-09T07:27:05.714Z,10.69
2019-03-09T07:28:05.736Z,10.81
2019-03-09T07:29:05.757Z,10.79
2019-03-09T07:30:06.044Z,10.76
2019-03-09T07:31:05.799Z,10.79
2019-03-09T07:32:05.814Z,10.78
2019-03-09T07:33:06.095Z,10.79
2019-03-09T07:34:05.585Z,10.82
2019-03-09T07:35:06.141Z,10.82
2019-03-09T07:36:05.626Z,10.84
2019-03-09T07:37:05.931Z,10.79
2019-03-09T07:38:05.930Z,10.78
2019-03-09T07:39:05.948Z,10.78
2019-03-09T07:40:05.983Z,10.82
2019-03-09T07:41:06.248Z,10.82
2019-03-09T07:42:05.746Z,10.84
2019-03-09T07:43:06.556Z,10.94
2019-03-09T07:44:06.048Z,10.84
2019-03-09T07:45:06.062Z,10.82
2019-03-09T07:46:06.341Z,10.79
2019-03-09T07:47:06.366Z,10.84
2019-03-09T07:48:06.129Z,10.86
2019-03-09T07:49:06.137Z,10.9
2019-03-09T07:50:06.157Z,10.84
2019-03-09T07:51:05.918Z,10.76
2019-03-09T07:52:05.930Z,10.94
2019-03-09T07:53:06.000Z,10.89
2019-03-09T07:54:06.230Z,10.78
2019-03-09T07:55:06.514Z,10.86
2019-03-09T07:56:06.268Z,10.81
2019-03-09T07:57:06.027Z,10.82
2019-03-09T07:58:06.583Z,10.78
2019-03-09T07:59:06.327Z,10.99
2019-03-09T08:00:06.613Z,10.93
2019-03-09T08:01:06.629Z,10.89
2019-03-09T08:02:06.386Z,10.96
2019-03-09T08:03:06.674Z,11.02
2019-03-09T08:04:06.482Z,10.96
2019-03-09T08:05:06.443Z,11
2019-03-09T08:06:06.723Z,11.05
2019-03-09T08:07:06.747Z,11.05
2019-03-09T08:08:06.248Z,11.04
2019-03-09T08:09:06.785Z,11.1
2019-03-09T08:10:06.541Z,11.05
2019-03-09T08:11:06.824Z,11.07
2019-03-09T08:12:06.577Z,11.1
2019-03-09T08:13:06.604Z,11.12
2019-03-09T08:14:06.630Z,11.12
2019-03-09T08:15:06.904Z,11.12
2019-03-09T08:16:06.394Z,11.19
2019-03-09T08:17:06.679Z,11.19
2019-03-09T08:18:06.696Z,11.17
2019-03-09T08:19:06.725Z,11.27
2019-03-09T08:20:06.741Z,11.3
2019-03-09T08:21:07.022Z,11.32
2019-03-09T08:22:07.044Z,11.35
2019-03-09T08:23:07.056Z,11.32
2019-03-09T08:24:06.572Z,11.35
2019-03-09T08:25:06.594Z,11.36
2019-03-09T08:26:06.878Z,11.35
2019-03-09T08:27:06.889Z,11.43
2019-03-09T08:28:06.905Z,11.37
2019-03-09T08:29:06.946Z,11.41
2019-03-09T08:30:07.362Z,11.37
2019-03-09T08:31:07.210Z,11.43
2019-03-09T08:32:06.714Z,11.5
2019-03-09T08:33:07.018Z,11.52
2019-03-09T08:34:07.027Z,11.44
2019-03-09T08:35:07.041Z,11.5
2019-03-09T08:36:07.071Z,11.55
2019-03-09T08:37:06.859Z,11.54
2019-03-09T08:38:07.125Z,11.5
2019-03-09T08:39:07.430Z,11.48
2019-03-09T08:40:07.138Z,11.54
2019-03-09T08:41:07.151Z,11.52
2019-03-09T08:42:07.186Z,11.52
2019-03-09T08:43:07.461Z,11.55
2019-03-09T08:44:07.566Z,11.48
2019-03-09T08:45:06.985Z,11.48
2019-03-09T08:46:07.001Z,11.51
2019-03-09T08:47:07.018Z,11.51
2019-03-09T08:48:07.362Z,11.51
2019-03-09T08:49:07.074Z,11.45
2019-03-09T08:50:07.071Z,11.45
2019-03-09T08:51:07.395Z,11.47
2019-03-09T08:52:07.421Z,11.52
2019-03-09T08:53:07.151Z,11.51
2019-03-09T08:54:07.505Z,11.5
2019-03-09T08:55:07.725Z,11.45
2019-03-09T08:56:07.488Z,11.5
2019-03-09T08:57:07.777Z,11.51
2019-03-09T08:58:07.753Z,11.5
2019-03-09T08:59:07.567Z,11.54
2019-03-09T09:00:07.891Z,11.57
2019-03-09T09:01:07.289Z,11.55
2019-03-09T09:02:07.363Z,11.54
2019-03-09T09:03:07.322Z,11.52
2019-03-09T09:04:07.597Z,11.52
2019-03-09T09:05:07.615Z,11.5
2019-03-09T09:06:07.378Z,11.57
2019-03-09T09:07:07.411Z,11.52
2019-03-09T09:08:08.762Z,11.5
2019-03-09T09:09:07.694Z,11.45
2019-03-09T09:10:07.744Z,11.52
2019-03-09T09:11:07.734Z,11.57
2019-03-09T09:12:07.754Z,11.54
2019-03-09T09:13:08.069Z,11.48
2019-03-09T09:14:08.052Z,11.54
2019-03-09T09:15:07.550Z,11.59
2019-03-09T09:16:07.843Z,11.54
2019-03-09T09:17:07.858Z,11.57
2019-03-09T09:18:07.890Z,11.54
2019-03-09T09:19:07.629Z,11.6
2019-03-09T09:20:07.910Z,11.66
2019-03-09T09:21:07.682Z,11.55
2019-03-09T09:22:09.374Z,11.62
2019-03-09T09:23:07.970Z,11.57
2019-03-09T09:24:08.260Z,11.62
2019-03-09T09:25:08.024Z,11.59
2019-03-09T09:26:07.766Z,11.63
2019-03-09T09:27:07.790Z,11.57
2019-03-09T09:28:08.329Z,11.6
2019-03-09T09:29:07.828Z,11.6
2019-03-09T09:30:08.107Z,11.65
2019-03-09T09:31:08.175Z,11.66
2019-03-09T09:32:08.412Z,11.57
2019-03-09T09:33:08.165Z,11.55
2019-03-09T09:34:08.188Z,11.59
2019-03-09T09:35:08.226Z,11.65
2019-03-09T09:36:08.487Z,11.6
2019-03-09T09:37:08.251Z,11.65
2019-03-09T09:38:08.536Z,11.65
2019-03-09T09:39:08.282Z,11.65
2019-03-09T09:40:08.387Z,11.69
2019-03-09T09:41:08.324Z,11.59
2019-03-09T09:42:08.604Z,11.69
2019-03-09T09:43:08.099Z,11.66
2019-03-09T09:44:08.643Z,11.75
2019-03-09T09:45:08.142Z,11.8
2019-03-09T09:46:08.686Z,11.7
2019-03-09T09:47:08.178Z,11.72
2019-03-09T09:48:08.460Z,11.77
2019-03-09T09:49:08.743Z,11.69
2019-03-09T09:50:08.242Z,11.78
2019-03-09T09:51:08.780Z,11.77
2019-03-09T09:52:08.275Z,11.83
2019-03-09T09:53:08.304Z,11.8
2019-03-09T09:54:08.842Z,11.77
2019-03-09T09:55:08.337Z,11.81
2019-03-09T09:56:08.623Z,11.87
2019-03-09T09:57:08.641Z,11.75
2019-03-09T09:58:08.662Z,11.75
2019-03-09T09:59:08.684Z,11.78
2019-03-09T10:00:08.697Z,11.86
2019-03-09T10:01:08.985Z,11.83
2019-03-09T10:02:08.741Z,11.77
2019-03-09T10:03:08.763Z,11.77
2019-03-09T10:04:09.992Z,11.84
2019-03-09T10:05:09.083Z,11.86
2019-03-09T10:06:10.917Z,11.84
2019-03-09T10:07:09.105Z,11.91
2019-03-09T10:08:08.592Z,11.91
2019-03-09T10:09:08.875Z,11.88
2019-03-09T10:10:08.899Z,11.91
2019-03-09T10:11:09.179Z,11.99
2019-03-09T10:12:08.936Z,11.95
2019-03-09T10:13:08.963Z,12.04
2019-03-09T10:14:08.977Z,12.04
2019-03-09T10:15:08.995Z,11.99
2019-03-09T10:16:08.760Z,12.06
2019-03-09T10:17:09.297Z,12.13
2019-03-09T10:18:09.054Z,12.09
2019-03-09T10:19:11.033Z,12.03
2019-03-09T10:20:09.360Z,12.1
2019-03-09T10:21:09.126Z,12.09
2019-03-09T10:22:08.872Z,12.1
2019-03-09T10:23:09.749Z,12.1
2019-03-09T10:24:09.437Z,12.1
2019-03-09T10:25:08.936Z,12.15
2019-03-09T10:26:09.268Z,12.17
2019-03-09T10:27:09.238Z,12.2
2019-03-09T10:28:09.522Z,12.12
2019-03-09T10:29:09.009Z,12.18
2019-03-09T10:30:09.318Z,12.1
2019-03-09T10:31:09.324Z,12.2
2019-03-09T10:32:09.598Z,12.24
2019-03-09T10:33:09.109Z,12.15
2019-03-09T10:34:09.378Z,12.25
2019-03-09T10:35:09.654Z,12.22
2019-03-09T10:36:09.153Z,12.2
2019-03-09T10:37:09.432Z,12.27
2019-03-09T10:38:09.454Z,12.25
2019-03-09T10:39:09.480Z,12.27
2019-03-09T10:40:09.493Z,12.27
2019-03-09T10:41:09.512Z,12.24
2019-03-09T10:42:09.540Z,12.29
2019-03-09T10:43:09.552Z,12.24
2019-03-09T10:44:09.359Z,12.27
2019-03-09T10:45:09.336Z,12.31
2019-03-09T10:46:09.615Z,12.25
2019-03-09T10:47:09.374Z,12.22
2019-03-09T10:48:09.403Z,12.21
2019-03-09T10:49:09.960Z,12.21
2019-03-09T10:50:09.692Z,12.17
2019-03-09T10:51:09.982Z,12.25
2019-03-09T10:52:09.736Z,12.24
2019-03-09T10:53:09.750Z,12.32
2019-03-09T10:54:09.775Z,12.29
2019-03-09T10:55:09.534Z,12.32
2019-03-09T10:56:09.814Z,12.22
2019-03-09T10:57:09.837Z,12.24
2019-03-09T10:58:09.598Z,12.27
2019-03-09T10:59:09.870Z,12.15
2019-03-09T11:00:10.165Z,12.27
2019-03-09T11:01:09.914Z,12.29
2019-03-09T11:02:09.671Z,12.31
2019-03-09T11:03:10.217Z,12.18
2019-03-09T11:04:09.972Z,12.28
2019-03-09T11:05:09.761Z,12.25
2019-03-09T11:06:10.325Z,12.28
2019-03-09T11:07:10.033Z,12.29
2019-03-09T11:08:09.793Z,12.27
2019-03-09T11:09:09.812Z,12.28
2019-03-09T11:10:10.094Z,12.31
2019-03-09T11:11:10.113Z,12.29
2019-03-09T11:12:09.873Z,12.27
2019-03-09T11:13:09.888Z,12.29
2019-03-09T11:14:09.913Z,12.28
2019-03-09T11:15:10.193Z,12.32
2019-03-09T11:16:10.214Z,12.29
2019-03-09T11:17:10.230Z,12.25
2019-03-09T11:18:09.991Z,12.39
2019-03-09T11:19:10.011Z,12.28
2019-03-09T11:20:10.288Z,12.4
2019-03-09T11:21:10.313Z,12.36
2019-03-09T11:22:10.330Z,12.4
2019-03-09T11:23:10.615Z,12.43
2019-03-09T11:24:10.373Z,12.46
2019-03-09T11:25:10.130Z,12.4
2019-03-09T11:26:10.154Z,12.49
2019-03-09T11:27:10.702Z,12.47
2019-03-09T11:28:10.453Z,12.42
2019-03-09T11:29:10.739Z,12.45
2019-03-09T11:30:10.500Z,12.46
2019-03-09T11:31:10.512Z,12.49
2019-03-09T11:32:10.529Z,12.54
2019-03-09T11:33:10.827Z,12.57
2019-03-09T11:34:10.311Z,12.5
2019-03-09T11:35:10.596Z,12.58
2019-03-09T11:36:10.364Z,12.61
2019-03-09T11:37:10.372Z,12.62
2019-03-09T11:38:10.661Z,12.6
2019-03-09T11:39:10.740Z,12.61
2019-03-09T11:40:10.436Z,12.58
2019-03-09T11:41:20.951Z,12.57
2019-03-09T11:42:10.479Z,12.58
2019-03-09T11:43:10.761Z,12.57
2019-03-09T11:44:10.515Z,12.73
2019-03-09T11:45:10.534Z,12.58
2019-03-09T11:46:10.819Z,12.7
2019-03-09T11:47:10.852Z,12.58
2019-03-09T11:48:10.593Z,12.65
2019-03-09T11:49:10.613Z,12.62
2019-03-09T11:50:10.632Z,12.73
2019-03-09T11:51:10.652Z,12.64
2019-03-09T11:52:21.729Z,12.75
2019-03-09T11:53:10.964Z,12.73
2019-03-09T11:54:10.713Z,12.75
2019-03-09T11:55:10.732Z,12.57
2019-03-09T11:56:10.755Z,12.73
2019-03-09T11:57:11.038Z,12.7
2019-03-09T11:58:11.060Z,12.6
2019-03-09T11:59:10.816Z,12.72
2019-03-09T12:00:10.836Z,12.68
2019-03-09T12:01:10.858Z,12.61
2019-03-09T12:02:10.883Z,12.75
2019-03-09T12:03:10.903Z,12.7
2019-03-09T12:04:11.447Z,12.65
2019-03-09T12:05:11.477Z,12.7
2019-03-09T12:06:11.229Z,12.73
2019-03-09T12:07:11.238Z,12.64
2019-03-09T12:08:11.257Z,12.76
2019-03-09T12:09:11.280Z,12.72
2019-03-09T12:10:11.037Z,12.73
2019-03-09T12:11:11.324Z,12.7
2019-03-09T12:12:11.098Z,12.73
2019-03-09T12:13:11.364Z,12.72
2019-03-09T12:14:11.381Z,12.7
2019-03-09T12:15:11.138Z,12.62
2019-03-09T12:16:11.419Z,12.75
2019-03-09T12:17:17.140Z,12.67
2019-03-09T12:18:11.276Z,12.68
2019-03-09T12:19:11.744Z,12.72
2019-03-09T12:20:11.766Z,12.8
2019-03-09T12:21:11.785Z,12.72
2019-03-09T12:22:11.541Z,12.78
2019-03-09T12:23:11.302Z,12.83
2019-03-09T12:24:22.196Z,12.79
2019-03-09T12:25:11.362Z,12.8
2019-03-09T12:26:11.368Z,12.79
2019-03-09T12:27:11.388Z,12.83
2019-03-09T12:28:11.405Z,12.82
2019-03-09T12:29:11.694Z,12.86
2019-03-09T12:30:11.759Z,12.91
2019-03-09T12:31:11.738Z,12.9
2019-03-09T12:32:11.483Z,12.87
2019-03-09T12:33:11.765Z,12.79
2019-03-09T12:34:11.529Z,12.93
2019-03-09T12:35:11.808Z,12.94
2019-03-09T12:36:11.833Z,12.87
2019-03-09T12:37:11.851Z,12.91
2019-03-09T12:38:11.886Z,12.95
2019-03-09T12:39:11.891Z,12.83
2019-03-09T12:40:11.656Z,12.83
2019-03-09T12:41:11.669Z,12.93
2019-03-09T12:42:12.227Z,12.85
2019-03-09T12:43:11.992Z,12.79
2019-03-09T12:44:11.994Z,12.9
2019-03-09T12:45:11.758Z,12.9
2019-03-09T12:46:12.030Z,12.9
2019-03-09T12:47:11.791Z,12.86
2019-03-09T12:48:12.072Z,12.91
2019-03-09T12:49:12.090Z,12.91
2019-03-09T12:50:12.113Z,12.91
2019-03-09T12:51:12.138Z,12.93
2019-03-09T12:52:12.419Z,12.91
2019-03-09T12:53:14.016Z,13
2019-03-09T12:54:12.458Z,13.01
2019-03-09T12:55:11.958Z,13.03
2019-03-09T12:56:11.974Z,13.03
2019-03-09T12:57:12.257Z,13.11